Terminal Aerodrome Forecast
Issued by NWS Cleveland, OH

Home | Current Version | Previous Version | Text Only | Print | Product List | Glossary On
Versions: 1 2 3 4 5 6 7 8 9 10 11 12 13 14 15 16 17
000
FTUS41 KCLE 222344
TAFCAK
TAF
KCAK 222344Z 2300/2324 26007KT P6SM FEW040
     FM230900 24004KT 3SM BR SCT100
     FM231000 24004KT 2SM BR SCT100
     FM231300 23005KT 5SM BR BKN025
     FM231400 27008KT P6SM BKN035
     FM232300 30007KT P6SM SCT120=

USA.gov is the U.S. government's official web portal to all federal, state and local government web resources and services.